Accueil
METAR-TAF:

METAR-TAF

Aéroports :

Morrisville-Stowe State Airport

Morrisville, Vermont, États-Unis

latitude: 44-32-10N, longitude: 072-36-58W, altitude: 223 m

Observation

Le bulletin a été fait il y a 32 minutes, à 09:54 UTC
Vent 8 kt de nord
Température -7°C
Humidité 86%
Pression 1019 hPa
Visibilité: 14.5 km
Quelques nuages à une hauteur de 2700 ft
Nuages épars à une hauteur de 3200 ft
Ciel couvert à une hauteur de 4500 ft
neige faible

METAR: KMVL 100954Z AUTO 35008KT 9SM -SN FEW027 SCT032 OVC045 M07/M09 A3009 RMK AO2 SNE0855B49 SLP202 P0000 T10671089 $

Heure: 05:26 (10:26 UTC)


TAF: absent

Observations et prévisions météorologiques de plus de 4000 aéroports (messages METAR et TAF).

Les stations disponibles sont représentées par des disques jaunes et rouges sur la carte.

Passer la souris dessus pour voir le nom de la station.

Cliquer dessus pour voir les observations et prévisions météorologiques.

Pour changer de carte: cliquez sur les boutons verts avec une croix noire pour zoomer, sur le bouton vert avec un tiret pour effectuer un zoom arrière, ou sur les flèches vertes pour les cartes adjacentes.


METAR-TAF: